createdAt,value
2018-09-05T00:02:11.470Z,18.00
2018-09-05T00:04:40.039Z,18.00
2018-09-05T00:07:08.601Z,17.90
2018-09-05T00:09:37.139Z,17.90
2018-09-05T00:12:06.022Z,17.90
2018-09-05T00:14:34.683Z,17.90
2018-09-05T00:17:03.242Z,17.90
2018-09-05T00:19:31.749Z,17.90
2018-09-05T00:22:00.271Z,17.90
2018-09-05T00:24:28.771Z,17.90
2018-09-05T00:26:57.317Z,17.90
2018-09-05T00:29:26.201Z,17.80
2018-09-05T00:31:54.752Z,17.80
2018-09-05T00:34:23.238Z,17.80
2018-09-05T00:36:51.785Z,17.80
2018-09-05T00:39:20.325Z,17.80
2018-09-05T00:41:48.854Z,17.80
2018-09-05T00:44:17.362Z,17.70
2018-09-05T00:46:45.870Z,17.80
2018-09-05T00:49:14.451Z,17.70
2018-09-05T00:51:42.953Z,17.70
2018-09-05T00:54:11.517Z,17.70
2018-09-05T00:56:40.102Z,17.70
2018-09-05T00:59:08.633Z,17.70
2018-09-05T01:01:37.158Z,17.70
2018-09-05T01:04:05.886Z,17.60
2018-09-05T01:06:34.596Z,17.60
2018-09-05T01:09:03.181Z,17.60
2018-09-05T01:11:31.741Z,17.60
2018-09-05T01:14:00.270Z,17.60
2018-09-05T01:16:28.776Z,17.60
2018-09-05T01:18:57.371Z,17.50
2018-09-05T01:21:25.942Z,17.50
2018-09-05T01:23:54.527Z,17.50
2018-09-05T01:26:23.134Z,17.50
2018-09-05T01:28:51.628Z,17.50
2018-09-05T01:31:20.213Z,17.50
2018-09-05T01:33:48.732Z,17.50
2018-09-05T01:36:18.590Z,17.50
2018-09-05T01:38:47.109Z,17.40
2018-09-05T01:41:15.861Z,17.50
2018-09-05T01:43:44.826Z,17.40
2018-09-05T01:46:13.379Z,17.40
2018-09-05T01:48:41.926Z,17.40
2018-09-05T01:51:10.489Z,17.40
2018-09-05T01:53:39.073Z,17.40
2018-09-05T01:56:07.570Z,17.30
2018-09-05T01:58:36.141Z,17.40
2018-09-05T02:01:04.675Z,17.30
2018-09-05T02:03:33.216Z,17.30
2018-09-05T02:06:01.720Z,17.30
2018-09-05T02:08:30.299Z,17.30
2018-09-05T02:10:58.782Z,17.20
2018-09-05T02:13:27.292Z,17.20
2018-09-05T02:15:55.818Z,17.20
2018-09-05T02:18:24.711Z,17.20
2018-09-05T02:20:53.281Z,17.20
2018-09-05T02:23:21.845Z,17.20
2018-09-05T02:25:50.346Z,17.20
2018-09-05T02:28:18.869Z,17.10
2018-09-05T02:30:47.398Z,17.20
2018-09-05T02:33:15.913Z,17.10
2018-09-05T02:35:44.408Z,17.10
2018-09-05T02:38:13.015Z,17.10
2018-09-05T02:40:41.493Z,17.10
2018-09-05T02:43:09.990Z,17.10
2018-09-05T02:45:38.521Z,17.10
2018-09-05T02:48:07.064Z,17.00
2018-09-05T02:50:35.589Z,17.00
2018-09-05T02:53:04.116Z,17.00
2018-09-05T02:55:37.978Z,17.00
2018-09-05T02:58:06.514Z,17.00
2018-09-05T03:00:34.996Z,16.90
2018-09-05T03:03:03.497Z,16.90
2018-09-05T03:05:31.981Z,16.90
2018-09-05T03:08:00.475Z,16.90
2018-09-05T03:10:28.954Z,16.80
2018-09-05T03:12:57.477Z,16.90
2018-09-05T03:15:26.010Z,16.80
2018-09-05T03:17:54.506Z,16.80
2018-09-05T03:20:23.022Z,16.80
2018-09-05T03:22:51.550Z,16.80
2018-09-05T03:25:20.071Z,16.80
2018-09-05T03:27:48.651Z,16.70
2018-09-05T03:30:17.151Z,16.70
2018-09-05T03:32:45.768Z,16.70
2018-09-05T03:35:14.214Z,16.70
2018-09-05T03:37:42.715Z,16.70
2018-09-05T03:40:11.181Z,16.70
2018-09-05T03:42:39.687Z,16.60
2018-09-05T03:45:08.187Z,16.60
2018-09-05T03:47:36.706Z,16.60
2018-09-05T03:50:06.183Z,16.60
2018-09-05T03:52:34.684Z,16.60
2018-09-05T03:55:03.179Z,16.60
2018-09-05T03:57:31.649Z,16.60
2018-09-05T04:00:00.147Z,16.60
2018-09-05T04:02:28.624Z,16.50
2018-09-05T04:04:58.154Z,16.60
2018-09-05T04:07:26.939Z,16.50
2018-09-05T04:09:55.430Z,16.50
2018-09-05T04:12:23.987Z,16.50
2018-09-05T04:14:52.490Z,16.50
2018-09-05T04:17:21.349Z,16.40
2018-09-05T04:19:50.057Z,16.40
2018-09-05T04:22:18.517Z,16.40
2018-09-05T04:24:47.043Z,16.40
2018-09-05T04:27:15.681Z,16.40
2018-09-05T04:29:44.195Z,16.40
2018-09-05T04:32:12.712Z,16.40
2018-09-05T04:34:41.197Z,16.40
2018-09-05T04:37:09.686Z,16.30
2018-09-05T04:39:38.191Z,16.40
2018-09-05T04:42:06.741Z,16.40
2018-09-05T04:44:35.227Z,16.40
2018-09-05T04:47:03.741Z,16.30
2018-09-05T04:49:32.245Z,16.30
2018-09-05T04:52:00.714Z,16.30
2018-09-05T04:54:29.221Z,16.30
2018-09-05T04:56:57.701Z,16.30
2018-09-05T04:59:26.268Z,16.20
2018-09-05T05:01:54.851Z,16.20
2018-09-05T05:04:23.550Z,16.20
2018-09-05T05:06:52.053Z,16.20
2018-09-05T05:09:20.546Z,16.20
2018-09-05T05:11:49.037Z,16.20
2018-09-05T05:14:17.534Z,16.20
2018-09-05T05:16:46.002Z,16.20
2018-09-05T05:19:14.510Z,16.20
2018-09-05T05:21:43.096Z,16.20
2018-09-05T05:24:11.676Z,16.10
2018-09-05T05:26:40.166Z,16.10
2018-09-05T05:29:08.711Z,16.10
2018-09-05T05:31:37.249Z,16.10
2018-09-05T05:34:05.831Z,16.10
2018-09-05T05:36:34.416Z,16.10
2018-09-05T05:39:03.084Z,16.10
2018-09-05T05:41:31.584Z,16.10
2018-09-05T05:44:00.122Z,16.10
2018-09-05T05:46:28.702Z,16.10
2018-09-05T05:48:57.161Z,16.10
2018-09-05T05:51:25.715Z,16.00
2018-09-05T05:53:54.211Z,16.00
2018-09-05T05:56:22.717Z,16.10
2018-09-05T05:58:51.184Z,16.00
2018-09-05T06:01:19.831Z,16.00
2018-09-05T06:03:48.243Z,16.10
2018-09-05T06:06:16.913Z,16.10
2018-09-05T06:08:45.241Z,16.10
2018-09-05T06:11:13.757Z,16.00
2018-09-05T06:13:42.236Z,16.00
2018-09-05T06:16:10.854Z,16.10
2018-09-05T06:18:40.229Z,16.00
2018-09-05T06:21:08.824Z,16.00
2018-09-05T06:23:37.397Z,16.10
2018-09-05T06:26:06.317Z,16.00
2018-09-05T06:28:35.193Z,16.10
2018-09-05T06:31:04.142Z,15.90
2018-09-05T06:33:32.575Z,15.70
2018-09-05T06:36:01.108Z,15.70
2018-09-05T06:38:29.648Z,15.70
2018-09-05T06:40:58.198Z,15.80
2018-09-05T06:43:26.784Z,15.80
2018-09-05T06:45:55.329Z,15.80
2018-09-05T06:48:23.847Z,15.80
2018-09-05T06:50:56.586Z,15.80
2018-09-05T06:53:25.097Z,15.80
2018-09-05T06:55:53.642Z,15.80
2018-09-05T06:58:22.284Z,15.80
2018-09-05T07:00:50.831Z,15.80
2018-09-05T07:03:19.462Z,15.80
2018-09-05T07:05:48.334Z,15.80
2018-09-05T07:08:16.829Z,15.80
2018-09-05T07:10:45.414Z,15.90
2018-09-05T07:13:13.925Z,15.90
2018-09-05T07:15:42.491Z,15.90
2018-09-05T07:18:11.010Z,15.90
2018-09-05T07:20:39.534Z,15.90
2018-09-05T07:23:08.105Z,15.90
2018-09-05T07:25:36.632Z,15.90
2018-09-05T07:28:05.395Z,15.90
2018-09-05T07:30:34.088Z,15.90
2018-09-05T07:33:02.514Z,15.90
2018-09-05T07:35:31.045Z,15.90
2018-09-05T07:37:59.560Z,15.90
2018-09-05T07:40:28.063Z,15.90
2018-09-05T07:42:56.630Z,15.90
2018-09-05T07:45:25.198Z,15.90
2018-09-05T07:47:53.727Z,16.00
2018-09-05T07:50:22.259Z,16.00
2018-09-05T07:52:50.778Z,15.90
2018-09-05T07:55:19.426Z,16.00
2018-09-05T07:57:47.931Z,15.90
2018-09-05T08:00:16.409Z,15.90
2018-09-05T08:02:44.926Z,16.00
2018-09-05T08:05:13.424Z,16.00
2018-09-05T08:07:41.963Z,16.00
2018-09-05T08:10:10.457Z,16.00
2018-09-05T08:12:38.958Z,16.00
2018-09-05T08:15:07.485Z,16.00
2018-09-05T08:17:35.982Z,16.00
2018-09-05T08:20:04.663Z,16.00
2018-09-05T08:22:33.195Z,16.00
2018-09-05T08:25:01.682Z,16.10
2018-09-05T08:27:30.203Z,16.10
2018-09-05T08:29:58.766Z,16.10
2018-09-05T08:32:27.349Z,16.10
2018-09-05T08:34:55.952Z,16.10
2018-09-05T08:37:24.683Z,16.10
2018-09-05T08:39:52.998Z,16.10
2018-09-05T08:42:21.675Z,16.10
2018-09-05T08:44:50.349Z,16.20
2018-09-05T08:47:18.738Z,16.20
2018-09-05T08:49:47.245Z,16.20
2018-09-05T08:52:15.785Z,16.30
2018-09-05T08:54:44.321Z,16.30
2018-09-05T08:57:12.853Z,16.30
2018-09-05T08:59:41.360Z,16.30
2018-09-05T09:02:09.882Z,16.40
2018-09-05T09:04:38.407Z,16.40
2018-09-05T09:07:06.957Z,16.40
2018-09-05T09:09:35.518Z,16.40
2018-09-05T09:12:04.041Z,16.50
2018-09-05T09:14:32.584Z,16.50
2018-09-05T09:17:01.127Z,16.50
2018-09-05T09:19:29.763Z,16.60
2018-09-05T09:21:58.530Z,16.50
2018-09-05T09:24:27.104Z,16.60
2018-09-05T09:26:55.634Z,16.60
2018-09-05T09:29:24.147Z,16.60
2018-09-05T09:31:52.687Z,16.60
2018-09-05T09:34:21.232Z,16.70
2018-09-05T09:36:49.746Z,16.70
2018-09-05T09:39:18.276Z,16.70
2018-09-05T09:41:46.793Z,16.80
2018-09-05T09:44:15.390Z,16.80
2018-09-05T09:46:44.017Z,16.80
2018-09-05T09:49:12.485Z,16.90
2018-09-05T09:51:41.009Z,16.90
2018-09-05T09:54:09.791Z,17.00
2018-09-05T09:56:38.318Z,17.10
2018-09-05T09:59:06.881Z,17.20
2018-09-05T10:01:40.802Z,17.20
2018-09-05T10:04:14.645Z,17.30
2018-09-05T10:06:48.447Z,17.40
2018-09-05T10:09:22.627Z,17.50
2018-09-05T10:11:56.403Z,17.60
2018-09-05T10:14:30.235Z,17.70
2018-09-05T10:17:04.087Z,17.80
2018-09-05T10:19:32.631Z,17.90
2018-09-05T10:22:01.143Z,18.00
2018-09-05T10:24:29.710Z,18.10
2018-09-05T10:26:58.255Z,18.30
2018-09-05T10:29:26.781Z,18.40
2018-09-05T10:31:55.301Z,18.50
2018-09-05T10:34:23.937Z,18.70
2018-09-05T10:36:52.444Z,18.80
2018-09-05T10:39:21.047Z,18.90
2018-09-05T10:41:49.531Z,19.00
2018-09-05T10:44:18.114Z,19.20
2018-09-05T10:46:46.574Z,19.40
2018-09-05T10:49:15.079Z,19.60
2018-09-05T10:51:49.011Z,19.80
2018-09-05T10:54:17.481Z,19.80
2018-09-05T10:56:45.979Z,20.00
2018-09-05T10:59:14.494Z,20.10
2018-09-05T11:01:43.065Z,20.20
2018-09-05T11:04:11.646Z,20.30
2018-09-05T11:06:40.333Z,20.50
2018-09-05T11:09:10.585Z,20.70
2018-09-05T11:11:39.684Z,20.70
2018-09-05T11:14:09.126Z,20.80
2018-09-05T11:16:37.855Z,20.90
2018-09-05T11:19:06.793Z,21.00
2018-09-05T11:21:35.362Z,21.00
2018-09-05T11:24:03.885Z,21.20
2018-09-05T11:26:32.399Z,21.10
2018-09-05T11:29:01.002Z,21.00
2018-09-05T11:31:29.574Z,21.10
2018-09-05T11:33:58.089Z,21.30
2018-09-05T11:36:26.617Z,21.40
2018-09-05T11:38:55.147Z,21.20
2018-09-05T11:41:23.667Z,21.00
2018-09-05T11:43:52.342Z,20.90
2018-09-05T11:46:21.090Z,20.80
2018-09-05T11:48:49.601Z,20.70
2018-09-05T11:51:18.118Z,20.40
2018-09-05T11:53:46.620Z,20.40
2018-09-05T11:56:15.169Z,20.30
2018-09-05T11:58:43.689Z,20.20
2018-09-05T12:01:12.224Z,20.20
2018-09-05T12:03:40.749Z,20.30
2018-09-05T12:06:09.305Z,20.40
2018-09-05T12:08:37.808Z,20.50
2018-09-05T12:11:06.375Z,20.50
2018-09-05T12:13:34.878Z,20.50
2018-09-05T12:16:03.437Z,20.40
2018-09-05T12:18:31.948Z,20.40
2018-09-05T12:21:00.498Z,20.40
2018-09-05T12:23:29.015Z,20.40
2018-09-05T12:25:57.612Z,20.50
2018-09-05T12:28:26.130Z,20.50
2018-09-05T12:30:54.672Z,20.40
2018-09-05T12:33:23.161Z,20.40
2018-09-05T12:35:51.673Z,20.40
2018-09-05T12:38:20.172Z,20.30
2018-09-05T12:40:48.690Z,20.30
2018-09-05T12:43:17.172Z,20.30
2018-09-05T12:45:45.727Z,20.30
2018-09-05T12:48:14.215Z,20.30
2018-09-05T12:50:42.728Z,20.40
2018-09-05T12:53:11.226Z,20.40
2018-09-05T12:55:39.756Z,20.40
2018-09-05T12:58:08.290Z,20.30
2018-09-05T13:00:36.859Z,20.40
2018-09-05T13:03:05.634Z,20.30
2018-09-05T13:05:34.181Z,20.30
2018-09-05T13:08:02.706Z,20.40
2018-09-05T13:10:31.521Z,20.40
2018-09-05T13:13:00.023Z,20.40
2018-09-05T13:15:28.522Z,20.40
2018-09-05T13:17:57.037Z,20.40
2018-09-05T13:20:25.529Z,20.40
2018-09-05T13:22:54.107Z,20.40
2018-09-05T13:25:22.554Z,20.40
2018-09-05T13:27:51.077Z,20.30
2018-09-05T13:30:19.609Z,20.20
2018-09-05T13:32:48.146Z,20.10
2018-09-05T13:35:16.712Z,20.10
2018-09-05T13:37:45.237Z,20.10
2018-09-05T13:40:13.775Z,20.20
2018-09-05T13:42:42.322Z,20.20
2018-09-05T13:45:10.917Z,20.20
2018-09-05T13:47:39.433Z,20.20
2018-09-05T13:50:07.981Z,20.20
2018-09-05T13:52:36.523Z,20.20
2018-09-05T13:55:05.087Z,20.20
2018-09-05T13:57:33.652Z,20.20
2018-09-05T14:00:02.250Z,20.10
2018-09-05T14:02:30.796Z,20.20
2018-09-05T14:04:59.329Z,20.20
2018-09-05T14:07:27.883Z,20.20
2018-09-05T14:09:56.488Z,20.20
2018-09-05T14:12:25.686Z,20.20
2018-09-05T14:14:54.222Z,20.20
2018-09-05T14:17:22.795Z,20.20
2018-09-05T14:19:51.407Z,20.20
2018-09-05T14:22:19.982Z,20.20
2018-09-05T14:24:48.489Z,20.20
2018-09-05T14:27:17.060Z,20.20
2018-09-05T14:29:45.589Z,20.10
2018-09-05T14:32:14.174Z,20.20
2018-09-05T14:34:42.720Z,20.20
2018-09-05T14:37:11.271Z,20.20
2018-09-05T14:39:39.798Z,20.20
2018-09-05T14:42:08.561Z,20.20
2018-09-05T14:44:37.086Z,20.20
2018-09-05T14:47:05.623Z,20.20
2018-09-05T14:49:34.121Z,20.20
2018-09-05T14:52:02.643Z,20.20
2018-09-05T14:54:31.180Z,20.30
2018-09-05T14:56:59.746Z,20.30
2018-09-05T14:59:28.293Z,20.30
2018-09-05T15:01:56.803Z,20.20
2018-09-05T15:04:25.349Z,20.20
2018-09-05T15:06:54.241Z,20.20
2018-09-05T15:09:22.839Z,20.30
2018-09-05T15:11:51.640Z,20.20
2018-09-05T15:14:20.159Z,20.20
2018-09-05T15:16:48.698Z,20.30
2018-09-05T15:19:17.305Z,20.20
2018-09-05T15:21:45.958Z,20.20
2018-09-05T15:24:14.575Z,20.20
2018-09-05T15:26:43.178Z,20.20
2018-09-05T15:29:12.109Z,20.20
2018-09-05T15:31:40.695Z,20.20
2018-09-05T15:34:09.262Z,21.20
2018-09-05T15:36:37.789Z,22.10
2018-09-05T15:39:08.865Z,22.70
2018-09-05T15:41:37.614Z,23.20
2018-09-05T15:44:06.260Z,23.30
2018-09-05T15:46:34.848Z,23.40
2018-09-05T15:49:03.434Z,23.50
2018-09-05T15:51:32.010Z,23.50
2018-09-05T15:54:00.729Z,23.60
2018-09-05T15:56:29.339Z,23.60
2018-09-05T15:58:58.182Z,23.60
2018-09-05T16:01:26.871Z,23.60
2018-09-05T16:03:55.532Z,23.60
2018-09-05T16:06:24.446Z,23.60
2018-09-05T16:08:53.018Z,23.50
2018-09-05T16:11:21.628Z,23.50
2018-09-05T16:13:50.742Z,23.50
2018-09-05T16:16:19.295Z,23.50
2018-09-05T16:18:47.896Z,23.50
2018-09-05T16:21:16.402Z,23.40
2018-09-05T16:23:45.008Z,23.40
2018-09-05T16:26:13.555Z,23.40
2018-09-05T16:28:42.205Z,23.40
2018-09-05T16:31:10.786Z,23.30
2018-09-05T16:33:39.329Z,23.40
2018-09-05T16:36:08.099Z,23.40
2018-09-05T16:38:36.688Z,23.30
2018-09-05T16:41:05.358Z,23.30
2018-09-05T16:43:33.977Z,23.30
2018-09-05T16:46:02.468Z,23.30
2018-09-05T16:48:31.158Z,23.30
2018-09-05T16:50:59.718Z,23.20
2018-09-05T16:53:28.245Z,23.20
2018-09-05T16:55:56.968Z,23.20
2018-09-05T16:58:25.673Z,23.10
2018-09-05T17:00:54.274Z,23.10
2018-09-05T17:03:23.018Z,23.10
2018-09-05T17:05:51.559Z,23.10
2018-09-05T17:08:20.135Z,23.10
2018-09-05T17:10:48.891Z,23.10
2018-09-05T17:13:17.386Z,23.10
2018-09-05T17:15:46.285Z,23.00
2018-09-05T17:18:14.788Z,23.00
2018-09-05T17:20:43.963Z,23.00
2018-09-05T17:23:12.816Z,23.00
2018-09-05T17:25:41.367Z,23.00
2018-09-05T17:28:09.998Z,22.90
2018-09-05T17:30:38.545Z,22.90
2018-09-05T17:33:07.067Z,22.90
2018-09-05T17:35:35.619Z,22.90
2018-09-05T17:38:04.155Z,22.90
2018-09-05T17:40:32.713Z,22.80
2018-09-05T17:43:01.217Z,22.80
2018-09-05T17:45:29.736Z,22.80
2018-09-05T17:47:58.235Z,22.80
2018-09-05T17:50:26.757Z,22.80
2018-09-05T17:52:55.618Z,22.70
2018-09-05T17:55:24.166Z,22.70
2018-09-05T17:57:52.679Z,22.70
2018-09-05T18:00:21.214Z,22.60
2018-09-05T18:02:49.721Z,22.60
2018-09-05T18:05:18.250Z,22.60
2018-09-05T18:07:46.819Z,22.60
2018-09-05T18:10:15.389Z,22.60
2018-09-05T18:12:44.728Z,22.50
2018-09-05T18:15:13.274Z,22.50
2018-09-05T18:17:41.780Z,22.50
2018-09-05T18:20:10.341Z,22.50
2018-09-05T18:22:38.914Z,22.50
2018-09-05T18:25:07.474Z,22.40
2018-09-05T18:27:35.977Z,22.40
2018-09-05T18:30:04.762Z,22.40
2018-09-05T18:32:33.265Z,22.40
2018-09-05T18:35:01.790Z,22.40
2018-09-05T18:37:30.307Z,22.30
2018-09-05T18:39:58.842Z,22.30
2018-09-05T18:42:27.350Z,22.30
2018-09-05T18:44:55.880Z,22.20
2018-09-05T18:47:24.453Z,22.20
2018-09-05T18:49:52.986Z,22.20
2018-09-05T18:52:21.574Z,22.20
2018-09-05T18:54:50.078Z,22.10
2018-09-05T18:57:18.639Z,22.10
2018-09-05T18:59:47.217Z,22.10
2018-09-05T19:02:15.792Z,22.00
2018-09-05T19:04:44.301Z,22.00
2018-09-05T19:07:12.852Z,22.00
2018-09-05T19:09:41.360Z,22.00
2018-09-05T19:12:09.899Z,21.90
2018-09-05T19:14:38.385Z,21.90
2018-09-05T19:17:06.925Z,21.90
2018-09-05T19:19:35.428Z,21.90
2018-09-05T19:22:03.967Z,21.80
2018-09-05T19:24:32.548Z,21.80
2018-09-05T19:27:01.074Z,21.80
2018-09-05T19:29:29.578Z,21.80
2018-09-05T19:31:58.106Z,21.70
2018-09-05T19:34:26.633Z,21.70
2018-09-05T19:36:55.431Z,21.70
2018-09-05T19:39:23.946Z,21.70
2018-09-05T19:41:52.530Z,21.60
2018-09-05T19:44:21.116Z,21.60
2018-09-05T19:46:49.699Z,21.60
2018-09-05T19:49:18.267Z,21.60
2018-09-05T19:51:47.403Z,21.50
2018-09-05T19:54:16.066Z,21.50
2018-09-05T19:56:44.627Z,21.50
2018-09-05T19:59:13.222Z,21.50
2018-09-05T20:01:41.808Z,21.40
2018-09-05T20:04:10.295Z,21.40
2018-09-05T20:06:38.810Z,21.40
2018-09-05T20:09:08.418Z,21.40
2018-09-05T20:11:37.246Z,21.30
2018-09-05T20:14:06.221Z,21.30
2018-09-05T20:16:34.729Z,21.30
2018-09-05T20:19:03.228Z,21.20
2018-09-05T20:21:31.734Z,21.20
2018-09-05T20:24:00.601Z,21.20
2018-09-05T20:26:29.547Z,21.20
2018-09-05T20:28:58.116Z,21.20
2018-09-05T20:31:26.662Z,21.20
2018-09-05T20:33:55.226Z,21.10
2018-09-05T20:36:23.762Z,21.10
2018-09-05T20:38:52.555Z,21.10
2018-09-05T20:41:21.289Z,21.10
2018-09-05T20:43:49.812Z,21.00
2018-09-05T20:46:18.398Z,21.00
2018-09-05T20:48:46.952Z,21.00
2018-09-05T20:51:15.536Z,20.90
2018-09-05T20:53:44.253Z,20.90
2018-09-05T20:56:12.750Z,20.90
2018-09-05T20:58:41.366Z,20.90
2018-09-05T21:01:09.918Z,20.90
2018-09-05T21:03:38.462Z,20.80
2018-09-05T21:06:07.630Z,20.80
2018-09-05T21:08:36.254Z,20.80
2018-09-05T21:11:04.737Z,20.80
2018-09-05T21:13:33.257Z,20.70
2018-09-05T21:16:01.775Z,20.70
2018-09-05T21:18:30.398Z,20.70
2018-09-05T21:20:59.966Z,20.70
2018-09-05T21:23:30.327Z,20.70
2018-09-05T21:25:58.833Z,20.60
2018-09-05T21:28:27.802Z,20.60
2018-09-05T21:30:56.313Z,20.60
2018-09-05T21:33:25.391Z,20.50
2018-09-05T21:35:53.876Z,20.50
2018-09-05T21:38:22.391Z,20.50
2018-09-05T21:40:50.917Z,20.50
2018-09-05T21:43:19.430Z,20.50
2018-09-05T21:45:47.957Z,20.40
2018-09-05T21:48:16.491Z,20.40
2018-09-05T21:50:44.972Z,20.40
2018-09-05T21:53:13.479Z,20.40
2018-09-05T21:55:41.967Z,20.30
2018-09-05T21:58:10.599Z,20.30
2018-09-05T22:00:39.122Z,20.30
2018-09-05T22:03:07.665Z,20.30
2018-09-05T22:05:36.146Z,20.30
2018-09-05T22:08:04.678Z,20.20
2018-09-05T22:10:33.194Z,20.20
2018-09-05T22:13:01.953Z,20.20
2018-09-05T22:15:35.757Z,20.10
2018-09-05T22:18:04.282Z,20.10
2018-09-05T22:20:32.760Z,20.10
2018-09-05T22:23:01.264Z,20.10
2018-09-05T22:25:30.031Z,20.00
2018-09-05T22:27:58.951Z,20.00
2018-09-05T22:30:27.668Z,20.00
2018-09-05T22:32:56.208Z,20.00
2018-09-05T22:35:24.710Z,20.00
2018-09-05T22:37:53.224Z,19.90
2018-09-05T22:40:21.744Z,19.90
2018-09-05T22:43:01.539Z,19.90
2018-09-05T22:45:41.273Z,19.90
2018-09-05T22:49:27.876Z,19.90
2018-09-05T22:52:16.003Z,19.80
2018-09-05T22:55:01.742Z,19.80
2018-09-05T22:58:42.951Z,19.80
2018-09-05T23:01:26.722Z,19.70
2018-09-05T23:04:38.535Z,19.70
2018-09-05T23:07:17.327Z,19.70
2018-09-05T23:09:57.054Z,19.70
2018-09-05T23:12:36.813Z,19.70
2018-09-05T23:15:16.602Z,19.60
2018-09-05T23:20:04.047Z,19.60
2018-09-05T23:22:43.794Z,19.60
2018-09-05T23:25:12.465Z,19.50
2018-09-05T23:27:41.007Z,19.50
2018-09-05T23:30:09.534Z,19.50
2018-09-05T23:32:38.020Z,19.50
2018-09-05T23:35:06.553Z,19.50
2018-09-05T23:37:35.068Z,19.40
2018-09-05T23:40:03.609Z,19.40
2018-09-05T23:42:32.108Z,19.40
2018-09-05T23:45:00.817Z,19.40
2018-09-05T23:47:29.316Z,19.30
2018-09-05T23:49:57.839Z,19.30
2018-09-05T23:52:26.363Z,19.30
2018-09-05T23:54:54.873Z,19.30
2018-09-05T23:57:23.359Z,19.30
2018-09-05T23:59:51.850Z,19.20
